Time;durP1;ratioP1;P1;durP2;ratioP2;P2;SDS_P1;SDS_P2;PMS_P1;PMS_P2;Temp;Humidity;BMP_temperature;BMP_pressure;BME280_temperature;BME280_humidity;BME280_pressure;Samples;Min_cycle;Max_cycle;Signal;HPM_P1;HPM_P2
2022/07/25 00:00:07;;;;;;;4.18;2.58;;;23.70;99.90;;;;;;5075851;28;20123;-56
2022/07/25 00:02:33;;;;;;;3.35;2.35;;;23.70;99.90;;;;;;5074720;28;20040;-55
2022/07/25 00:04:59;;;;;;;2.95;2.10;;;23.70;99.90;;;;;;5075405;28;20082;-56
2022/07/25 00:07:26;;;;;;;3.15;2.35;;;23.70;99.90;;;;;;5075521;28;20048;-56
2022/07/25 00:09:52;;;;;;;2.47;2.25;;;23.70;99.90;;;;;;5075551;28;20119;-56
2022/07/25 00:12:18;;;;;;;3.10;2.17;;;23.70;99.90;;;;;;5075486;28;20071;-56
2022/07/25 00:14:43;;;;;;;5.68;2.10;;;23.70;99.90;;;;;;5074975;28;20505;-56
2022/07/25 00:17:09;;;;;;;6.78;2.53;;;23.70;99.90;;;;;;5073948;28;20089;-57
2022/07/25 00:19:35;;;;;;;6.60;2.60;;;23.70;99.90;;;;;;5074516;28;20056;-55
2022/07/25 00:22:01;;;;;;;5.22;2.20;;;23.70;99.90;;;;;;5074943;28;20122;-57
2022/07/25 00:24:27;;;;;;;2.40;2.17;;;23.70;99.90;;;;;;5075096;28;20032;-58
2022/07/25 00:26:52;;;;;;;4.13;2.10;;;23.70;99.90;;;;;;5075224;28;20486;-58
2022/07/25 00:29:18;;;;;;;2.95;2.20;;;23.70;99.90;;;;;;5074931;28;20044;-58
2022/07/25 00:31:44;;;;;;;2.53;2.10;;;23.70;99.90;;;;;;5075253;28;20052;-57
2022/07/25 00:34:09;;;;;;;3.97;2.30;;;23.70;99.90;;;;;;5075273;28;20374;-57
2022/07/25 00:36:35;;;;;;;4.10;2.20;;;23.60;99.90;;;;;;5074752;28;20510;-57
2022/07/25 00:39:01;;;;;;;5.28;2.17;;;23.60;99.90;;;;;;5074942;28;20532;-57
2022/07/25 00:41:26;;;;;;;2.88;2.63;;;23.60;99.90;;;;;;5074960;28;20512;-57
2022/07/25 00:43:52;;;;;;;2.70;2.47;;;23.50;99.90;;;;;;5074868;28;20500;-57
2022/07/25 00:46:18;;;;;;;3.40;2.70;;;23.50;99.90;;;;;;5074929;28;20032;-58
2022/07/25 00:48:43;;;;;;;3.42;2.40;;;23.50;99.90;;;;;;5074105;28;20139;-58
2022/07/25 00:51:10;;;;;;;4.80;2.70;;;23.50;99.90;;;;;;5074608;28;20083;-57
2022/07/25 00:53:37;;;;;;;5.05;2.90;;;23.40;99.90;;;;;;5074365;28;20106;-57
2022/07/25 00:56:04;;;;;;;4.68;2.72;;;23.30;99.90;;;;;;5073362;28;20040;-57
2022/07/25 00:58:30;;;;;;;3.53;2.50;;;23.30;99.90;;;;;;5074323;28;20064;-56
2022/07/25 01:00:57;;;;;;;3.75;2.60;;;23.30;99.90;;;;;;5074407;28;20047;-56
2022/07/25 01:03:22;;;;;;;3.55;2.63;;;23.30;99.90;;;;;;5074807;28;20045;-56
2022/07/25 01:05:49;;;;;;;4.35;2.85;;;23.30;99.90;;;;;;5074182;28;20509;-56
2022/07/25 01:08:20;;;;;;;4.50;2.95;;;23.30;99.90;;;;;;5074190;28;20133;-56
2022/07/25 01:10:46;;;;;;;5.85;3.55;;;23.20;99.90;;;;;;5074225;28;20363;-56
2022/07/25 01:13:12;;;;;;;5.35;2.97;;;23.20;99.90;;;;;;5074480;28;20040;-56
2022/07/25 01:15:38;;;;;;;4.70;3.30;;;23.20;99.90;;;;;;5070083;28;20123;-56
2022/07/25 01:18:04;;;;;;;5.00;3.38;;;23.20;99.90;;;;;;5070052;28;20071;-57
2022/07/25 01:20:31;;;;;;;4.13;3.28;;;23.10;99.90;;;;;;5074478;28;20075;-58
2022/07/25 01:22:58;;;;;;;4.50;3.00;;;23.10;99.90;;;;;;5074012;28;20050;-57
2022/07/25 01:25:24;;;;;;;3.88;3.33;;;23.00;99.90;;;;;;5074342;28;20052;-57
2022/07/25 01:27:52;;;;;;;4.00;3.60;;;23.00;99.90;;;;;;5074283;28;20043;-57
2022/07/25 01:30:19;;;;;;;4.97;3.80;;;23.00;99.90;;;;;;5073829;28;20044;-58
2022/07/25 01:32:45;;;;;;;5.18;4.05;;;23.00;99.90;;;;;;5073910;28;20047;-57
2022/07/25 01:35:11;;;;;;;4.88;3.92;;;23.00;99.90;;;;;;5074158;28;20041;-57
2022/07/25 01:37:38;;;;;;;4.18;3.60;;;22.90;99.90;;;;;;5068219;28;20533;-58
2022/07/25 01:40:04;;;;;;;3.97;3.58;;;22.90;99.90;;;;;;5054127;28;20119;-57
2022/07/25 01:42:30;;;;;;;4.68;4.00;;;22.90;99.90;;;;;;5054162;28;20423;-57
2022/07/25 01:44:56;;;;;;;4.63;3.92;;;22.90;99.90;;;;;;5053613;28;20080;-57
2022/07/25 01:47:21;;;;;;;5.72;3.90;;;22.80;99.90;;;;;;5053788;28;20068;-57
2022/07/25 01:49:47;;;;;;;4.60;4.10;;;22.80;99.90;;;;;;5053326;28;20115;-58
2022/07/25 01:52:13;;;;;;;5.15;3.85;;;22.70;99.90;;;;;;5053945;28;20033;-57
2022/07/25 01:54:39;;;;;;;5.50;4.30;;;22.70;99.90;;;;;;5053960;28;20037;-57
2022/07/25 01:57:06;;;;;;;5.25;4.50;;;22.70;99.90;;;;;;5053694;28;20041;-56
2022/07/25 05:08:55;;;;;;;11.60;8.70;;;21.80;99.90;;;;;;5058844;28;20047;-56
2022/07/25 05:11:20;;;;;;;12.52;8.95;;;21.80;99.90;;;;;;5055801;28;20482;-56
2022/07/25 05:13:46;;;;;;;10.00;9.00;;;21.80;99.90;;;;;;5051866;28;20111;-57
2022/07/25 05:16:11;;;;;;;11.20;9.32;;;21.80;99.90;;;;;;5053296;28;20116;-56
2022/07/25 05:18:37;;;;;;;10.40;9.40;;;21.80;99.90;;;;;;5053643;28;20073;-56
2022/07/25 05:21:03;;;;;;;10.68;8.90;;;21.80;99.90;;;;;;5054274;28;20065;-56
2022/07/25 05:23:28;;;;;;;10.20;9.20;;;21.90;99.90;;;;;;5053150;28;20037;-56
2022/07/25 05:25:54;;;;;;;14.35;10.13;;;22.00;99.90;;;;;;5054350;28;20041;-56
2022/07/25 05:28:19;;;;;;;11.63;10.13;;;22.00;99.90;;;;;;5053657;28;20044;-56
2022/07/25 05:30:45;;;;;;;11.85;10.05;;;22.00;99.90;;;;;;5053768;28;20041;-57
2022/07/25 05:33:11;;;;;;;11.90;9.80;;;21.90;99.90;;;;;;5053811;28;20032;-56
2022/07/25 05:35:36;;;;;;;12.98;10.30;;;21.90;99.90;;;;;;5053854;28;20563;-56
2022/07/25 05:38:02;;;;;;;12.45;9.82;;;22.00;99.90;;;;;;5053831;28;20033;-57
2022/07/25 05:40:28;;;;;;;10.80;9.68;;;22.00;99.90;;;;;;5053695;28;20463;-57
2022/07/25 05:42:53;;;;;;;12.05;10.07;;;22.00;99.90;;;;;;5053551;28;20045;-57
2022/07/25 05:45:19;;;;;;;11.82;10.60;;;22.00;99.90;;;;;;5072721;28;20107;-57
2022/07/25 05:47:45;;;;;;;16.33;10.93;;;22.00;99.90;;;;;;5073740;28;20047;-57
2022/07/25 05:50:10;;;;;;;12.45;10.73;;;22.00;99.90;;;;;;5073534;28;20483;-57
2022/07/25 05:52:36;;;;;;;11.20;9.77;;;22.00;99.90;;;;;;5073666;28;20044;-57
2022/07/25 05:55:02;;;;;;;14.43;10.60;;;22.00;99.90;;;;;;5073668;28;20044;-57
2022/07/25 05:57:27;;;;;;;15.75;10.30;;;22.10;99.90;;;;;;5073607;28;20090;-57
2022/07/25 05:59:53;;;;;;;14.02;11.02;;;22.10;99.90;;;;;;5065156;28;20040;-57
2022/07/25 06:02:18;;;;;;;11.95;10.85;;;22.20;99.90;;;;;;5053657;28;20048;-57
2022/07/25 06:04:44;;;;;;;14.50;11.15;;;22.30;99.90;;;;;;5053575;28;20449;-57
2022/07/25 06:07:10;;;;;;;14.30;10.75;;;22.30;99.90;;;;;;5053376;28;20092;-57
2022/07/25 06:09:35;;;;;;;11.82;10.73;;;22.30;99.90;;;;;;5055044;28;20060;-56
2022/07/25 06:12:01;;;;;;;13.70;11.32;;;22.40;99.90;;;;;;5063232;28;20045;-57
2022/07/25 06:14:27;;;;;;;12.45;11.02;;;22.40;99.90;;;;;;5053067;28;20060;-57
2022/07/25 06:16:53;;;;;;;15.30;10.93;;;22.50;99.90;;;;;;5053802;28;20068;-56
2022/07/25 06:19:19;;;;;;;13.50;11.30;;;22.60;99.90;;;;;;5063089;28;20420;-56
2022/07/25 06:21:44;;;;;;;12.40;10.07;;;22.60;99.90;;;;;;5073204;28;20386;-57
2022/07/25 06:24:10;;;;;;;13.38;10.52;;;22.70;99.90;;;;;;5071925;28;20395;-57
2022/07/25 06:26:37;;;;;;;12.13;10.90;;;22.70;99.90;;;;;;5072572;28;20044;-57
2022/07/25 06:29:03;;;;;;;10.98;9.90;;;22.80;99.90;;;;;;5073374;28;20522;-57
2022/07/25 06:31:28;;;;;;;13.20;10.82;;;22.90;99.90;;;;;;5073225;28;20064;-57
2022/07/25 06:33:54;;;;;;;10.35;9.35;;;22.90;99.90;;;;;;5073181;28;20036;-57
2022/07/25 06:36:19;;;;;;;12.23;11.00;;;23.00;99.90;;;;;;5076600;28;20040;-57
2022/07/25 06:38:45;;;;;;;10.95;9.82;;;23.10;99.90;;;;;;5077004;28;20039;-57
2022/07/25 06:41:14;;;;;;;11.40;10.15;;;23.40;99.90;;;;;;5077015;28;20467;-57
2022/07/25 06:43:41;;;;;;;11.93;9.57;;;23.70;99.90;;;;;;5077022;28;20086;-57
2022/07/25 06:46:07;;;;;;;10.70;9.60;;;23.90;99.90;;;;;;5077164;28;20070;-57
2022/07/25 06:48:32;;;;;;;12.23;10.05;;;24.10;99.90;;;;;;5076535;28;20037;-57
2022/07/25 06:50:58;;;;;;;11.05;9.77;;;24.30;99.90;;;;;;5076843;28;20041;-57
2022/07/25 06:53:23;;;;;;;16.25;10.73;;;24.40;99.90;;;;;;5076583;28;20044;-57
2022/07/25 06:55:49;;;;;;;12.45;10.00;;;24.40;99.90;;;;;;5076759;28;20036;-57
2022/07/25 06:58:15;;;;;;;13.95;10.70;;;24.30;99.90;;;;;;5076740;28;20036;-57
2022/07/25 07:00:40;;;;;;;12.50;9.20;;;24.30;99.90;;;;;;5076372;28;20043;-57
2022/07/25 07:03:06;;;;;;;10.57;9.48;;;24.30;99.90;;;;;;5076449;28;20032;-56
2022/07/25 07:05:35;;;;;;;11.18;10.05;;;24.30;99.90;;;;;;5076591;28;20080;-57
2022/07/25 07:08:01;;;;;;;10.35;9.35;;;24.30;99.90;;;;;;5076245;28;20153;-57
2022/07/25 07:10:27;;;;;;;9.40;8.23;;;24.20;99.90;;;;;;5076459;28;20121;-57
2022/07/25 07:13:22;;;;;;;10.02;8.70;;;24.20;99.90;;;;;;5076435;28;20083;-57
2022/07/25 07:15:49;;;;;;;12.68;9.10;;;24.20;99.90;;;;;;5053377;28;20056;-57
2022/07/25 07:18:16;;;;;;;10.90;9.60;;;24.10;99.90;;;;;;5054122;28;20072;-57
2022/07/25 07:20:42;;;;;;;13.48;9.88;;;24.10;99.90;;;;;;5054089;28;20049;-57
2022/07/25 07:23:09;;;;;;;14.18;9.93;;;24.10;99.90;;;;;;5053938;28;20044;-57
2022/07/25 07:25:34;;;;;;;12.20;10.95;;;24.10;99.90;;;;;;5053952;28;20091;-58
2022/07/25 07:28:00;;;;;;;13.68;9.88;;;24.00;99.90;;;;;;5053866;28;20041;-56
2022/07/25 07:30:26;;;;;;;12.98;9.80;;;24.10;99.90;;;;;;5053935;28;20045;-57
2022/07/25 07:32:51;;;;;;;12.48;10.55;;;24.10;99.90;;;;;;5053705;28;20164;-57
2022/07/25 07:35:18;;;;;;;11.38;9.90;;;24.10;99.90;;;;;;5053714;28;20041;-58
2022/07/25 07:37:45;;;;;;;18.20;9.70;;;24.10;99.90;;;;;;5053629;28;20053;-57
2022/07/25 07:40:14;;;;;;;9.88;8.88;;;24.20;99.90;;;;;;5053687;28;20053;-57
2022/07/25 07:42:46;;;;;;;12.80;8.63;;;24.30;99.90;;;;;;5053678;28;20075;-54
2022/07/25 07:45:27;;;;;;;15.20;9.25;;;24.40;99.90;;;;;;5053679;28;20079;-56
2022/07/25 07:47:54;;;;;;;12.25;9.18;;;24.60;99.90;;;;;;5052515;28;20130;-56
2022/07/25 07:50:22;;;;;;;9.63;7.88;;;24.70;99.90;;;;;;5053359;28;20527;-56
2022/07/25 07:52:48;;;;;;;14.75;8.90;;;24.70;99.90;;;;;;5070276;28;20124;-56
2022/07/25 07:57:58;;;;;;;7.55;6.57;;;24.80;99.90;;;;;;5075292;28;20479;-56
2022/07/25 08:00:26;;;;;;;8.88;7.28;;;25.10;99.90;;;;;;5075575;28;20044;-55
2022/07/25 08:02:53;;;;;;;9.57;7.93;;;25.10;99.90;;;;;;5075357;28;20484;-56
2022/07/25 08:05:28;;;;;;;8.93;7.75;;;25.20;99.90;;;;;;5075527;28;20040;-56
2022/07/25 08:07:54;;;;;;;10.23;7.38;;;25.30;99.90;;;;;;5075080;28;20057;-56
2022/07/25 08:10:22;;;;;;;8.45;7.05;;;25.40;99.90;;;;;;5075312;28;20471;-57
2022/07/25 08:12:48;;;;;;;7.07;6.38;;;25.40;99.90;;;;;;5075003;28;20115;-56
2022/07/25 08:15:16;;;;;;;9.05;7.15;;;25.50;99.90;;;;;;5075293;28;20044;-55
2022/07/25 08:17:42;;;;;;;11.15;7.10;;;25.60;99.90;;;;;;5075305;28;20033;-56
2022/07/25 08:20:08;;;;;;;12.35;6.88;;;25.70;99.90;;;;;;5075188;28;20451;-55
2022/07/25 08:22:46;;;;;;;10.38;6.68;;;25.80;99.90;;;;;;5074885;28;20036;-55
2022/07/25 08:25:17;;;;;;;6.40;5.80;;;26.00;99.90;;;;;;5075053;28;20040;-55
2022/07/25 08:27:43;;;;;;;7.13;6.43;;;26.20;99.90;;;;;;5075184;28;20028;-52
2022/07/25 08:30:10;;;;;;;9.27;6.82;;;26.20;99.90;;;;;;5075004;28;20062;-56
2022/07/25 08:32:52;;;;;;;7.53;6.82;;;26.20;99.90;;;;;;5074782;28;20049;-55
2022/07/25 08:35:21;;;;;;;8.48;6.25;;;26.10;99.90;;;;;;5074862;28;20386;-56
2022/07/25 08:37:48;;;;;;;7.38;6.47;;;25.90;99.90;;;;;;5074814;28;20036;-55
2022/07/25 08:40:15;;;;;;;10.00;6.60;;;25.70;99.90;;;;;;5074804;28;20037;-55
2022/07/25 08:42:42;;;;;;;9.07;6.10;;;25.50;99.90;;;;;;5074789;28;20060;-55
2022/07/25 08:45:11;;;;;;;8.50;5.78;;;25.40;99.90;;;;;;5074688;28;20038;-55
2022/07/25 08:47:38;;;;;;;5.38;4.80;;;25.30;99.90;;;;;;5074597;28;20028;-55
2022/07/25 08:50:06;;;;;;;7.28;5.45;;;25.30;99.90;;;;;;5074603;28;20051;-55
2022/07/25 08:52:35;;;;;;;7.22;5.35;;;25.10;99.90;;;;;;5074533;28;20119;-57
2022/07/25 08:55:14;;;;;;;6.03;4.22;;;25.00;99.90;;;;;;5074438;28;20048;-56
2022/07/25 08:57:42;;;;;;;5.72;4.00;;;24.80;99.90;;;;;;5074341;28;20391;-56
2022/07/25 09:00:11;;;;;;;4.60;3.50;;;24.70;99.90;;;;;;5074451;28;20040;-57
2022/07/25 09:02:37;;;;;;;;;;;24.70;99.90;;;;;;5074669;28;20033;-57
2022/07/25 09:05:03;;;;;;;6.85;3.13;;;24.60;99.90;;;;;;5074224;28;20027;-57
2022/07/25 09:07:33;;;;;;;5.43;3.03;;;24.60;99.90;;;;;;5073901;28;20048;-55
2022/07/25 09:10:13;;;;;;;5.95;2.80;;;24.60;99.90;;;;;;5074243;28;20059;-56
2022/07/25 09:12:39;;;;;;;5.72;2.85;;;24.70;99.90;;;;;;5074290;28;20054;-57
2022/07/25 09:15:07;;;;;;;6.47;2.70;;;24.70;99.90;;;;;;5073958;28;20043;-56
2022/07/25 09:17:36;;;;;;;4.50;2.30;;;24.70;99.90;;;;;;5074165;28;20036;-57
2022/07/25 09:20:05;;;;;;;4.65;2.90;;;24.90;99.90;;;;;;5073972;28;20028;-56
2022/07/25 09:22:30;;;;;;;;;;;24.80;99.90;;;;;;5074554;28;20054;-57
2022/07/25 09:24:56;;;;;;;4.95;2.00;;;24.70;99.90;;;;;;5073884;28;19916;-56
2022/07/25 09:27:21;;;;;;;9.25;2.25;;;24.70;99.90;;;;;;5073942;28;20040;-56
2022/07/25 09:29:47;;;;;;;5.00;2.03;;;24.70;99.90;;;;;;5073928;28;20045;-57
2022/07/25 09:32:23;;;;;;;2.65;1.90;;;24.70;99.90;;;;;;5073755;28;20391;-57
2022/07/25 09:34:49;;;;;;;2.45;1.70;;;24.70;99.90;;;;;;5073818;28;20041;-57
2022/07/25 09:37:18;;;;;;;2.55;1.90;;;24.60;99.90;;;;;;5073835;28;20166;-56
2022/07/25 09:39:49;;;;;;;5.57;1.85;;;24.80;99.90;;;;;;5073876;28;20044;-57
2022/07/25 09:42:26;;;;;;;4.15;1.65;;;24.90;99.90;;;;;;5072558;28;20525;-57
2022/07/25 09:45:01;;;;;;;4.07;2.00;;;24.90;99.90;;;;;;5073821;28;20040;-56
2022/07/25 09:47:27;;;;;;;2.20;1.60;;;25.00;99.90;;;;;;5073940;28;20040;-55
2022/07/25 09:49:53;;;;;;;5.55;1.70;;;25.20;99.90;;;;;;5073736;28;20040;-57
2022/07/25 09:52:19;;;;;;;2.80;1.67;;;25.30;99.90;;;;;;5072777;28;20414;-56
2022/07/25 09:54:45;;;;;;;1.73;1.50;;;25.30;99.90;;;;;;5073617;28;20043;-56
2022/07/25 09:57:10;;;;;;;3.35;1.50;;;25.40;99.90;;;;;;5072796;28;20065;-56
2022/07/25 09:59:36;;;;;;;4.35;1.63;;;25.40;99.90;;;;;;5073733;28;20041;-56
2022/07/25 10:02:10;;;;;;;2.33;1.83;;;25.30;99.90;;;;;;5073620;28;20028;-57
2022/07/25 10:05:02;;;;;;;2.88;1.60;;;25.30;99.90;;;;;;5072658;28;20063;-56
2022/07/25 10:07:28;;;;;;;1.95;1.50;;;25.20;99.90;;;;;;5073393;28;20052;-56
2022/07/25 10:09:54;;;;;;;3.47;1.77;;;25.10;99.90;;;;;;5074418;28;20379;-57
2022/07/25 10:12:23;;;;;;;2.97;1.67;;;25.20;99.90;;;;;;5077690;28;20433;-58
2022/07/25 10:15:10;;;;;;;6.82;2.03;;;25.00;99.90;;;;;;5077472;28;20036;-57
2022/07/25 10:17:38;;;;;;;4.65;1.75;;;24.80;99.90;;;;;;5077477;28;20044;-57
2022/07/25 10:20:06;;;;;;;3.10;1.85;;;24.60;99.90;;;;;;5077683;28;20033;-56
2022/07/25 10:22:49;;;;;;;2.85;1.70;;;24.50;99.90;;;;;;5077261;28;20037;-56
2022/07/25 10:25:18;;;;;;;2.78;1.80;;;24.30;99.90;;;;;;5077297;28;20087;-56
2022/07/25 10:27:47;;;;;;;;;;;24.30;99.90;;;;;;5076545;28;20040;-56
2022/07/25 10:30:25;;;;;;;4.77;1.80;;;24.10;99.90;;;;;;5077331;28;19923;-56
2022/07/25 10:32:59;;;;;;;3.08;2.30;;;24.10;99.90;;;;;;5077399;28;20676;-56
2022/07/25 10:35:26;;;;;;;2.95;1.83;;;24.00;99.90;;;;;;5077063;28;20115;-55
2022/07/25 10:37:54;;;;;;;10.35;2.30;;;23.90;99.90;;;;;;5077114;28;20471;-56
2022/07/25 10:40:28;;;;;;;6.97;2.00;;;23.60;99.90;;;;;;5076977;28;20089;-55
2022/07/25 10:43:05;;;;;;;6.50;2.25;;;23.40;99.90;;;;;;5076495;28;20539;-57
2022/07/25 10:45:42;;;;;;;7.30;2.15;;;23.20;99.90;;;;;;5076984;28;20047;-57
2022/07/25 10:48:10;;;;;;;5.75;2.40;;;23.10;99.90;;;;;;5076874;28;20033;-55
2022/07/25 10:50:47;;;;;;;5.00;2.22;;;23.00;99.90;;;;;;5076864;28;20045;-56
2022/07/25 10:53:13;;;;;;;7.82;2.60;;;23.00;99.90;;;;;;5076808;28;20076;-56
2022/07/25 10:55:38;;;;;;;5.88;2.65;;;22.90;99.90;;;;;;5076815;28;20071;-56
2022/07/25 10:58:07;;;;;;;6.60;2.55;;;23.00;99.90;;;;;;5076647;28;20040;-56
2022/07/25 11:00:33;;;;;;;4.40;2.42;;;23.20;99.90;;;;;;5076756;28;20033;-57
2022/07/25 11:02:59;;;;;;;4.85;2.25;;;23.50;99.90;;;;;;5076704;28;20028;-56
2022/07/25 11:05:25;;;;;;;6.13;2.30;;;23.90;99.90;;;;;;5076884;28;20040;-56
2022/07/25 11:07:52;;;;;;;3.80;1.75;;;23.90;99.90;;;;;;5076201;28;20062;-55
2022/07/25 11:10:26;;;;;;;4.90;2.40;;;23.90;99.90;;;;;;5076520;28;20364;-57
2022/07/25 11:12:52;;;;;;;10.65;2.28;;;24.10;99.90;;;;;;5076460;28;20036;-58
2022/07/25 11:15:22;;;;;;;6.30;2.00;;;24.10;99.90;;;;;;5076532;28;20120;-56
2022/07/25 11:17:52;;;;;;;6.78;2.10;;;24.10;99.90;;;;;;5076256;28;20043;-56
2022/07/25 11:20:18;;;;;;;5.18;2.13;;;24.20;99.90;;;;;;5076246;28;20036;-57
2022/07/25 11:22:54;;;;;;;6.28;2.40;;;24.10;99.90;;;;;;5075019;28;20044;-57
2022/07/25 11:25:23;;;;;;;5.78;2.20;;;24.20;99.90;;;;;;5076320;28;20129;-56
2022/07/25 11:27:55;;;;;;;5.45;1.90;;;24.10;99.90;;;;;;5074808;28;20498;-57
2022/07/25 11:30:21;;;;;;;7.40;2.10;;;24.20;99.90;;;;;;5076170;28;20470;-57
2022/07/25 11:32:53;;;;;;;8.23;2.30;;;24.20;99.90;;;;;;5076072;28;20043;-57
2022/07/25 11:35:25;;;;;;;7.07;2.45;;;24.30;99.90;;;;;;5076382;28;20040;-56
2022/07/25 11:37:52;;;;;;;4.25;2.20;;;24.40;99.90;;;;;;5075829;28;20068;-57
2022/07/25 11:40:19;;;;;;;7.78;2.40;;;24.50;99.90;;;;;;5075975;28;20043;-57
2022/07/25 11:42:50;;;;;;;5.20;2.17;;;24.70;99.90;;;;;;5075931;28;20425;-55
2022/07/25 11:45:20;;;;;;;7.90;2.50;;;24.90;99.90;;;;;;5075856;28;20044;-57
2022/07/25 11:47:49;;;;;;;4.88;2.00;;;24.90;99.90;;;;;;5075496;28;20043;-55
2022/07/25 11:50:16;;;;;;;7.35;2.53;;;24.70;99.90;;;;;;5075788;28;20032;-57
2022/07/25 11:52:42;;;;;;;6.30;2.03;;;24.60;99.90;;;;;;5075728;28;20028;-56
2022/07/25 11:55:10;;;;;;;9.25;2.63;;;24.30;99.90;;;;;;5075610;28;20036;-57
2022/07/25 11:57:43;;;;;;;6.68;2.38;;;24.10;99.90;;;;;;5075639;28;20091;-56
2022/07/25 12:00:19;;;;;;;10.88;2.35;;;23.80;99.90;;;;;;5075941;28;20041;-56
2022/07/25 12:02:47;;;;;;;9.63;2.67;;;23.90;99.90;;;;;;5075582;28;20040;-56
2022/07/25 12:05:16;;;;;;;8.83;2.00;;;24.10;99.90;;;;;;5075555;28;20040;-56
2022/07/25 12:07:51;;;;;;;8.95;2.42;;;24.10;99.90;;;;;;5075130;28;20090;-56
2022/07/25 12:10:34;;;;;;;6.72;2.10;;;24.20;99.90;;;;;;5074259;28;20139;-57
2022/07/25 12:13:02;;;;;;;7.65;2.33;;;24.20;99.90;;;;;;5074870;28;20483;-56
2022/07/25 12:15:30;;;;;;;5.90;1.70;;;24.20;99.90;;;;;;5075333;28;20049;-56
2022/07/25 12:17:57;;;;;;;6.55;1.92;;;24.30;99.90;;;;;;5075296;28;20041;-56
2022/07/25 12:20:24;;;;;;;7.85;1.98;;;24.30;99.90;;;;;;5075138;28;20029;-56
2022/07/25 12:22:52;;;;;;;7.05;2.13;;;24.20;99.90;;;;;;5075218;28;20037;-55
2022/07/25 12:25:18;;;;;;;6.60;2.20;;;24.20;99.90;;;;;;5075132;28;20032;-56
2022/07/25 12:27:44;;;;;;;21.52;2.25;;;24.70;99.90;;;;;;5074901;28;20044;-56
2022/07/25 12:30:11;;;;;;;14.32;2.85;;;24.80;99.90;;;;;;5075063;28;20383;-56
2022/07/25 12:32:37;;;;;;;8.45;1.98;;;24.90;99.90;;;;;;5074714;28;20044;-57
2022/07/25 12:35:07;;;;;;;7.07;2.75;;;24.80;99.90;;;;;;5074754;28;20044;-56
2022/07/25 12:37:33;;;;;;;6.10;1.67;;;24.70;99.90;;;;;;5074846;28;20417;-57
2022/07/25 12:39:59;;;;;;;8.65;2.25;;;24.50;99.90;;;;;;5074726;28;20043;-56
2022/07/25 12:42:26;;;;;;;6.55;1.90;;;24.40;99.90;;;;;;5073211;28;20038;-56
2022/07/25 12:44:51;;;;;;;9.68;1.60;;;24.50;99.90;;;;;;5074727;28;20036;-57
2022/07/25 12:47:17;;;;;;;5.20;1.70;;;24.50;99.90;;;;;;5074587;28;20036;-56
2022/07/25 12:49:43;;;;;;;5.82;2.13;;;24.30;99.90;;;;;;5074634;28;20040;-57
2022/07/25 12:52:09;;;;;;;9.30;1.85;;;24.30;99.90;;;;;;5074598;28;20402;-56
2022/07/25 12:54:34;;;;;;;9.32;2.97;;;24.10;99.90;;;;;;5074623;28;20471;-56
2022/07/25 12:57:00;;;;;;;7.20;2.53;;;24.00;99.90;;;;;;5074710;28;20472;-56
2022/07/25 12:59:26;;;;;;;6.25;2.20;;;23.90;99.90;;;;;;5074495;28;20039;-57
2022/07/25 13:01:51;;;;;;;8.18;2.28;;;23.90;99.90;;;;;;5074347;28;20090;-57
2022/07/25 13:04:17;;;;;;;5.88;1.92;;;24.10;99.90;;;;;;5074336;28;20041;-56
2022/07/25 13:06:43;;;;;;;8.77;1.92;;;24.20;99.90;;;;;;5072886;28;20467;-56
2022/07/25 13:09:08;;;;;;;5.57;2.15;;;24.30;99.90;;;;;;5073861;28;20048;-56
2022/07/25 13:11:34;;;;;;;5.68;1.42;;;24.10;99.90;;;;;;5074269;28;20057;-56
2022/07/25 13:13:59;;;;;;;6.82;1.73;;;24.00;99.90;;;;;;5074240;28;20033;-57
2022/07/25 13:16:25;;;;;;;4.97;1.55;;;23.90;99.90;;;;;;5074240;28;20043;-56
2022/07/25 13:18:51;;;;;;;5.63;2.08;;;23.90;99.90;;;;;;5074052;28;20052;-57
2022/07/25 13:21:17;;;;;;;6.57;1.95;;;23.80;99.90;;;;;;5074159;28;20059;-57
2022/07/25 13:23:43;;;;;;;8.07;1.50;;;23.70;99.90;;;;;;5074065;28;20056;-56
2022/07/25 13:26:09;;;;;;;10.30;2.38;;;23.60;99.90;;;;;;5073921;28;20044;-56
2022/07/25 13:28:35;;;;;;;7.90;2.92;;;23.70;99.90;;;;;;5074019;28;20040;-56
2022/07/25 13:31:00;;;;;;;7.47;1.88;;;23.70;99.90;;;;;;5073990;28;20044;-56
2022/07/25 13:33:27;;;;;;;8.20;1.92;;;23.60;99.90;;;;;;5073461;28;20483;-56
2022/07/25 13:35:53;;;;;;;7.70;1.85;;;23.70;99.90;;;;;;5073972;28;20048;-55
2022/07/25 13:38:19;;;;;;;8.50;2.78;;;23.70;99.90;;;;;;5073688;28;20033;-56
2022/07/25 13:40:45;;;;;;;6.43;1.80;;;23.90;99.90;;;;;;5073720;28;20041;-56
2022/07/25 13:43:12;;;;;;;5.60;1.85;;;24.00;99.90;;;;;;5073888;28;20059;-57
2022/07/25 13:45:39;;;;;;;10.85;3.42;;;24.00;99.90;;;;;;5073108;28;20040;-56
2022/07/25 13:48:05;;;;;;;5.70;1.77;;;23.90;99.90;;;;;;5073773;28;20076;-57
2022/07/25 13:50:32;;;;;;;5.95;2.13;;;23.90;99.90;;;;;;5073765;28;20039;-56
2022/07/25 13:52:59;;;;;;;5.68;1.98;;;23.70;99.90;;;;;;5073741;28;20040;-56
2022/07/25 13:55:29;;;;;;;6.15;2.15;;;23.80;99.90;;;;;;5073701;28;20054;-55
2022/07/25 13:57:55;;;;;;;5.00;1.98;;;23.80;99.90;;;;;;5073724;28;20051;-56
2022/07/25 14:00:21;;;;;;;6.15;2.20;;;23.70;99.90;;;;;;5073555;28;20115;-57
2022/07/25 14:02:46;;;;;;;7.53;2.50;;;23.60;99.90;;;;;;5073689;28;20052;-57
2022/07/25 14:05:12;;;;;;;10.25;2.50;;;23.60;99.90;;;;;;5073520;28;20040;-56
2022/07/25 14:07:38;;;;;;;12.68;2.60;;;23.60;99.90;;;;;;5073603;28;20041;-57
2022/07/25 14:10:07;;;;;;;10.18;2.40;;;23.60;99.90;;;;;;5073249;28;20067;-57
2022/07/25 14:12:33;;;;;;;11.00;2.08;;;23.80;99.90;;;;;;5073516;28;20479;-55
2022/07/25 14:14:59;;;;;;;4.50;2.15;;;24.20;99.90;;;;;;5073351;28;20055;-57
2022/07/25 14:17:24;;;;;;;8.52;2.35;;;24.30;99.90;;;;;;5073171;28;20040;-56
2022/07/25 14:19:50;;;;;;;6.85;2.53;;;24.10;99.90;;;;;;5073285;28;20116;-56
2022/07/25 14:22:16;;;;;;;6.47;2.05;;;24.00;99.90;;;;;;5073260;28;20065;-57
2022/07/25 14:24:41;;;;;;;10.32;2.30;;;23.80;99.90;;;;;;5073490;28;20044;-56
2022/07/25 14:27:07;;;;;;;5.80;1.80;;;23.70;99.90;;;;;;5073366;28;20051;-56
2022/07/25 14:29:32;;;;;;;8.60;2.15;;;23.80;99.90;;;;;;5073368;28;20439;-57
2022/07/25 14:31:58;;;;;;;6.22;2.45;;;23.90;99.90;;;;;;5073835;28;20510;-57
2022/07/25 14:34:23;;;;;;;8.43;2.10;;;23.90;99.90;;;;;;5073303;28;20036;-57
2022/07/25 14:36:49;;;;;;;7.47;2.10;;;24.00;99.90;;;;;;5073306;28;20036;-56
2022/07/25 14:39:15;;;;;;;11.60;2.58;;;24.00;99.90;;;;;;5073157;28;20032;-57
2022/07/25 14:41:41;;;;;;;8.00;2.08;;;24.10;99.90;;;;;;5073206;28;20045;-56
2022/07/25 14:44:07;;;;;;;8.23;2.15;;;24.30;99.90;;;;;;5073213;28;20064;-57
2022/07/25 14:46:33;;;;;;;10.15;2.30;;;24.40;99.90;;;;;;5073262;28;20036;-56
2022/07/25 14:48:59;;;;;;;13.10;2.28;;;24.40;99.90;;;;;;5073153;28;20505;-57
2022/07/25 14:51:25;;;;;;;9.30;2.53;;;24.50;99.90;;;;;;5073191;28;20032;-56
2022/07/25 14:53:50;;;;;;;10.70;2.45;;;24.60;99.90;;;;;;5072900;28;20467;-56
2022/07/25 14:56:17;;;;;;;5.25;2.15;;;24.70;99.90;;;;;;5074705;28;20036;-57
2022/07/25 14:58:43;;;;;;;10.30;2.40;;;24.50;99.90;;;;;;5076456;28;20487;-58
2022/07/25 15:01:10;;;;;;;13.65;2.40;;;24.30;99.90;;;;;;5076759;28;20072;-56
2022/07/25 15:03:36;;;;;;;7.45;2.25;;;24.10;99.90;;;;;;5076695;28;20048;-56
2022/07/25 15:06:02;;;;;;;8.45;2.53;;;24.10;99.90;;;;;;5076683;28;20089;-57
2022/07/25 15:08:28;;;;;;;12.38;2.53;;;24.00;99.90;;;;;;5076312;28;20417;-57
2022/07/25 15:10:54;;;;;;;11.35;2.45;;;23.90;99.90;;;;;;5076576;28;20052;-57
2022/07/25 15:13:20;;;;;;;10.20;2.22;;;23.90;99.90;;;;;;5076323;28;20047;-55
2022/07/25 15:15:46;;;;;;;10.23;2.45;;;23.90;99.90;;;;;;5076554;28;20036;-57
2022/07/25 15:18:12;;;;;;;9.25;2.22;;;24.10;99.90;;;;;;5076455;28;20064;-56
2022/07/25 15:20:37;;;;;;;9.20;2.05;;;24.20;99.90;;;;;;5076275;28;20036;-56
2022/07/25 15:23:03;;;;;;;7.07;2.15;;;24.10;99.90;;;;;;5076261;28;20087;-56
2022/07/25 15:25:29;;;;;;;6.25;2.08;;;24.10;99.90;;;;;;5076117;28;20058;-58
2022/07/25 15:27:56;;;;;;;10.23;2.03;;;24.00;99.90;;;;;;5076155;28;20036;-57
2022/07/25 15:30:22;;;;;;;10.20;2.53;;;23.80;99.90;;;;;;5076131;28;20047;-57
2022/07/25 15:32:47;;;;;;;7.65;2.38;;;23.80;99.90;;;;;;5074788;28;20041;-56
2022/07/25 15:35:13;;;;;;;7.70;2.03;;;23.60;99.90;;;;;;5076139;28;20040;-56
2022/07/25 15:37:39;;;;;;;10.77;2.50;;;23.60;99.90;;;;;;5076294;28;20041;-56
2022/07/25 15:40:06;;;;;;;9.02;2.75;;;23.50;99.90;;;;;;5074715;28;20044;-56
2022/07/25 15:42:32;;;;;;;11.07;2.88;;;23.40;99.90;;;;;;5075896;28;20479;-57
2022/07/25 15:44:58;;;;;;;10.02;2.13;;;23.30;99.90;;;;;;5075716;28;20526;-57
2022/07/25 15:47:24;;;;;;;10.75;2.42;;;23.40;99.90;;;;;;5076065;28;20079;-57
2022/07/25 15:49:49;;;;;;;8.00;2.20;;;23.50;99.90;;;;;;5075725;28;20501;-56
2022/07/25 15:52:16;;;;;;;11.00;2.70;;;23.50;99.90;;;;;;5075577;28;20546;-57
2022/07/25 15:54:42;;;;;;;9.05;3.38;;;23.40;99.90;;;;;;5075477;28;20090;-57